createdAt,value
2018-08-06T00:07:55.472Z,23.60
2018-08-06T00:10:25.988Z,23.70
2018-08-06T00:12:55.178Z,23.50
2018-08-06T00:15:24.423Z,23.60
2018-08-06T00:17:53.689Z,23.00
2018-08-06T00:20:22.862Z,23.30
2018-08-06T00:22:52.163Z,23.70
2018-08-06T00:25:21.558Z,23.70
2018-08-06T00:27:50.705Z,23.80
2018-08-06T00:30:21.039Z,23.80
2018-08-06T00:32:50.956Z,23.80
2018-08-06T00:35:20.327Z,23.70
2018-08-06T00:37:49.639Z,23.70
2018-08-06T00:40:29.272Z,23.20
2018-08-06T00:42:59.485Z,23.40
2018-08-06T00:45:28.804Z,23.60
2018-08-06T00:47:57.973Z,23.70
2018-08-06T00:55:56.909Z,23.70
2018-08-06T00:58:26.084Z,23.70
2018-08-06T01:00:55.257Z,23.70
2018-08-06T01:03:24.431Z,23.60
2018-08-06T01:05:53.593Z,23.60
2018-08-06T01:08:29.423Z,23.60
2018-08-06T01:10:58.584Z,23.30
2018-08-06T01:13:27.754Z,23.40
2018-08-06T01:15:57.031Z,23.50
2018-08-06T01:18:26.261Z,23.50
2018-08-06T01:20:55.675Z,23.50
2018-08-06T01:23:24.877Z,23.50
2018-08-06T01:25:54.029Z,23.40
2018-08-06T01:28:23.184Z,23.40
2018-08-06T01:30:52.401Z,23.20
2018-08-06T01:33:21.569Z,23.00
2018-08-06T01:38:51.031Z,23.20
2018-08-06T01:41:30.562Z,23.20
2018-08-06T01:43:59.739Z,23.20
2018-08-06T01:46:28.880Z,23.20
2018-08-06T01:48:58.061Z,23.00
2018-08-06T01:51:27.323Z,23.00
2018-08-06T01:53:56.545Z,23.10
2018-08-06T01:56:25.693Z,23.10
2018-08-06T01:58:54.825Z,23.20
2018-08-06T02:01:24.060Z,23.20
2018-08-06T02:03:53.793Z,23.20
2018-08-06T02:06:22.977Z,23.10
2018-08-06T02:08:52.168Z,22.90
2018-08-06T02:11:21.295Z,22.10
2018-08-06T02:13:50.445Z,22.10
2018-08-06T02:16:19.664Z,21.80
2018-08-06T02:18:48.853Z,22.30
2018-08-06T02:21:18.099Z,21.60
2018-08-06T02:23:47.389Z,22.00
2018-08-06T02:26:16.582Z,22.30
2018-08-06T02:31:45.718Z,22.60
2018-08-06T02:34:14.871Z,22.70
2018-08-06T02:36:44.066Z,22.70
2018-08-06T02:39:13.241Z,22.70
2018-08-06T02:41:42.436Z,22.70
2018-08-06T02:44:11.604Z,22.70
2018-08-06T02:46:40.752Z,22.70
2018-08-06T02:49:09.945Z,22.70
2018-08-06T02:51:39.235Z,22.60
2018-08-06T02:54:08.389Z,22.60
2018-08-06T02:56:37.577Z,22.60
2018-08-06T02:59:28.401Z,22.60
2018-08-06T03:04:57.744Z,22.60
2018-08-06T03:07:26.921Z,22.60
2018-08-06T03:09:56.199Z,22.60
2018-08-06T03:12:25.534Z,22.60
2018-08-06T03:14:54.685Z,22.70
2018-08-06T03:17:23.862Z,22.60
2018-08-06T03:19:53.125Z,22.60
2018-08-06T03:22:22.285Z,22.60
2018-08-06T03:24:51.669Z,22.50
2018-08-06T03:27:30.732Z,22.60
2018-08-06T03:29:59.928Z,22.60
2018-08-06T03:32:30.013Z,22.50
2018-08-06T03:34:59.206Z,22.50
2018-08-06T03:37:28.361Z,22.50
2018-08-06T03:42:26.552Z,22.40
2018-08-06T03:44:55.773Z,22.30
2018-08-06T03:47:24.925Z,22.30
2018-08-06T03:49:54.061Z,22.10
2018-08-06T03:52:23.329Z,21.60
2018-08-06T03:54:52.501Z,21.40
2018-08-06T03:57:21.738Z,21.70
2018-08-06T03:59:50.906Z,21.40
2018-08-06T04:02:30.310Z,21.40
2018-08-06T04:04:59.463Z,21.60
2018-08-06T04:07:28.608Z,21.10
2018-08-06T04:09:57.797Z,21.60
2018-08-06T04:12:27.112Z,21.50
2018-08-06T04:14:56.383Z,21.10
2018-08-06T04:17:25.525Z,21.10
2018-08-06T04:19:54.725Z,21.10
2018-08-06T04:22:23.895Z,21.50
2018-08-06T04:24:53.053Z,21.50
2018-08-06T04:27:22.285Z,21.80
2018-08-06T04:29:51.481Z,21.60
2018-08-06T04:32:30.486Z,21.80
2018-08-06T04:34:59.679Z,21.90
2018-08-06T04:37:28.865Z,21.90
2018-08-06T04:39:58.070Z,22.00
2018-08-06T04:42:27.291Z,22.00
2018-08-06T04:44:56.535Z,22.00
2018-08-06T04:47:25.773Z,21.70
2018-08-06T04:49:54.952Z,21.60
2018-08-06T04:52:24.393Z,21.70
2018-08-06T04:54:53.601Z,21.90
2018-08-06T04:57:22.816Z,21.90
2018-08-06T04:59:51.967Z,21.70
2018-08-06T05:02:29.365Z,21.80
2018-08-06T05:04:58.563Z,21.90
2018-08-06T05:07:27.723Z,21.90
2018-08-06T05:09:56.908Z,21.90
2018-08-06T05:12:26.057Z,21.70
2018-08-06T05:14:55.314Z,21.80
2018-08-06T05:17:24.713Z,21.90
2018-08-06T05:19:54.413Z,22.10
2018-08-06T05:22:23.644Z,21.60
2018-08-06T05:24:52.850Z,21.90
2018-08-06T05:27:22.385Z,22.10
2018-08-06T05:29:51.749Z,22.20
2018-08-06T05:32:29.137Z,22.20
2018-08-06T05:34:58.307Z,22.20
2018-08-06T05:37:27.485Z,21.80
2018-08-06T05:39:56.703Z,21.90
2018-08-06T05:42:25.902Z,22.10
2018-08-06T05:44:55.064Z,21.60
2018-08-06T05:47:24.265Z,21.20
2018-08-06T05:49:53.445Z,21.00
2018-08-06T05:52:22.657Z,21.10
2018-08-06T05:54:51.989Z,21.60
2018-08-06T05:57:21.172Z,21.40
2018-08-06T05:59:50.452Z,21.70
2018-08-06T06:02:29.561Z,20.90
2018-08-06T06:04:59.018Z,21.10
2018-08-06T06:07:28.190Z,21.20
2018-08-06T06:09:57.438Z,21.00
2018-08-06T06:12:26.625Z,20.90
2018-08-06T06:17:56.599Z,21.80
2018-08-06T06:20:25.762Z,21.80
2018-08-06T06:22:54.935Z,21.60
2018-08-06T06:25:24.148Z,21.50
2018-08-06T06:27:53.333Z,21.30
2018-08-06T06:30:22.506Z,21.10
2018-08-06T06:32:51.787Z,21.30
2018-08-06T06:35:20.941Z,21.30
2018-08-06T06:37:50.286Z,22.50
2018-08-06T06:40:19.505Z,21.00
2018-08-06T06:43:27.776Z,21.10
2018-08-06T06:45:56.933Z,21.20
2018-08-06T06:48:26.136Z,21.40
2018-08-06T06:50:55.600Z,21.10
2018-08-06T06:53:24.765Z,21.00
2018-08-06T06:55:54.062Z,21.20
2018-08-06T07:00:52.229Z,21.40
2018-08-06T07:03:21.429Z,21.40
2018-08-06T07:05:50.624Z,21.60
2018-08-06T07:08:19.770Z,21.80
2018-08-06T07:10:48.932Z,21.50
2018-08-06T07:13:18.271Z,21.70
2018-08-06T07:15:47.405Z,21.70
2018-08-06T07:18:16.633Z,21.80
2018-08-06T07:20:45.775Z,22.30
2018-08-06T07:23:14.929Z,22.60
2018-08-06T07:25:44.108Z,22.50
2018-08-06T07:28:13.390Z,22.20
2018-08-06T07:30:42.585Z,22.00
2018-08-06T07:33:11.739Z,21.90
2018-08-06T07:35:40.884Z,22.30
2018-08-06T07:38:10.083Z,22.40
2018-08-06T07:43:08.368Z,22.60
2018-08-06T07:45:37.494Z,22.80
2018-08-06T07:48:06.792Z,22.50
2018-08-06T07:53:29.868Z,22.60
2018-08-06T07:55:59.045Z,22.60
2018-08-06T07:58:28.262Z,22.70
2018-08-06T08:00:57.430Z,23.10
2018-08-06T08:03:26.631Z,23.10
2018-08-06T08:05:55.861Z,23.20
2018-08-06T08:08:25.014Z,23.70
2018-08-06T08:10:54.173Z,23.60
2018-08-06T08:13:23.449Z,23.90
2018-08-06T08:15:52.585Z,23.90
2018-08-06T08:18:21.795Z,23.80
2018-08-06T08:20:51.001Z,23.90
2018-08-06T08:23:20.190Z,24.30
2018-08-06T08:25:49.387Z,24.30
2018-08-06T08:28:18.533Z,24.00
2018-08-06T08:30:47.745Z,24.10
2018-08-06T08:33:16.982Z,23.60
2018-08-06T08:35:46.258Z,24.00
2018-08-06T08:38:15.443Z,24.60
2018-08-06T08:40:44.700Z,24.40
2018-08-06T08:43:13.909Z,24.10
2018-08-06T08:45:43.097Z,24.70
2018-08-06T08:48:12.269Z,24.50
2018-08-06T08:50:41.452Z,25.10
2018-08-06T08:53:10.672Z,25.30
2018-08-06T08:55:40.002Z,24.80
2018-08-06T08:58:09.189Z,25.20
2018-08-06T09:00:38.425Z,25.10
2018-08-06T09:03:28.014Z,24.90
2018-08-06T09:05:57.144Z,24.80
2018-08-06T09:08:26.337Z,24.70
2018-08-06T09:10:55.551Z,25.50
2018-08-06T09:13:24.757Z,25.50
2018-08-06T09:15:54.000Z,25.10
2018-08-06T09:18:23.269Z,25.30
2018-08-06T09:20:52.412Z,24.90
2018-08-06T09:23:21.630Z,25.20
2018-08-06T09:25:50.797Z,25.40
2018-08-06T09:28:19.993Z,25.60
2018-08-06T09:33:49.253Z,25.80
2018-08-06T09:38:47.449Z,25.50
2018-08-06T09:41:16.615Z,26.00
2018-08-06T09:43:45.893Z,25.90
2018-08-06T09:46:15.100Z,25.50
2018-08-06T09:48:44.375Z,25.20
2018-08-06T09:51:13.567Z,25.40
2018-08-06T09:53:42.836Z,25.70
2018-08-06T09:56:12.055Z,25.90
2018-08-06T09:58:41.275Z,25.90
2018-08-06T10:01:15.825Z,25.60
2018-08-06T10:03:45.078Z,25.60
2018-08-06T10:06:14.388Z,25.60
2018-08-06T10:08:43.517Z,26.30
2018-08-06T10:11:12.669Z,26.30
2018-08-06T10:13:41.870Z,25.90
2018-08-06T10:16:11.013Z,26.00
2018-08-06T10:18:40.220Z,26.20
2018-08-06T10:21:29.166Z,26.20
2018-08-06T10:23:58.317Z,26.80
2018-08-06T10:26:31.445Z,26.90
2018-08-06T10:29:00.607Z,26.90
2018-08-06T10:31:29.786Z,26.90
2018-08-06T10:33:58.940Z,27.20
2018-08-06T10:36:28.164Z,27.30
2018-08-06T10:38:57.312Z,27.40
2018-08-06T10:41:26.578Z,27.40
2018-08-06T10:43:55.733Z,27.00
2018-08-06T10:46:24.868Z,27.30
2018-08-06T10:48:54.219Z,27.10
2018-08-06T10:51:23.426Z,27.20
2018-08-06T10:56:53.241Z,26.20
2018-08-06T10:59:22.440Z,26.20
2018-08-06T11:02:39.445Z,27.10
2018-08-06T11:05:10.908Z,27.20
2018-08-06T11:07:40.410Z,26.50
2018-08-06T11:10:12.241Z,26.90
2018-08-06T11:12:41.570Z,27.20
2018-08-06T11:15:19.745Z,27.10
2018-08-06T11:17:48.968Z,27.10
2018-08-06T11:20:18.922Z,27.10
2018-08-06T11:22:48.154Z,27.30
2018-08-06T11:25:19.733Z,27.50
2018-08-06T11:27:49.487Z,27.70
2018-08-06T11:30:21.459Z,27.40
2018-08-06T11:32:51.233Z,27.20
2018-08-06T11:35:20.508Z,27.60
2018-08-06T11:40:50.125Z,27.80
2018-08-06T11:43:19.306Z,27.70
2018-08-06T11:48:17.587Z,28.20
2018-08-06T11:53:47.273Z,28.40
2018-08-06T11:56:16.434Z,28.60
2018-08-06T11:58:45.645Z,28.60
2018-08-06T12:01:14.862Z,28.80
2018-08-06T12:03:44.009Z,28.90
2018-08-06T12:06:13.160Z,28.80
2018-08-06T12:08:42.393Z,28.90
2018-08-06T12:11:11.569Z,28.90
2018-08-06T12:13:40.929Z,28.80
2018-08-06T12:16:10.021Z,28.40
2018-08-06T12:21:39.664Z,28.50
2018-08-06T12:24:08.854Z,29.00
2018-08-06T12:26:38.091Z,29.20
2018-08-06T12:29:07.273Z,29.30
2018-08-06T12:31:36.803Z,29.30
2018-08-06T12:34:06.185Z,29.40
2018-08-06T12:36:35.398Z,29.70
2018-08-06T12:39:11.643Z,29.70
2018-08-06T12:41:40.837Z,29.50
2018-08-06T12:44:11.636Z,29.40
2018-08-06T12:46:41.274Z,29.90
2018-08-06T12:49:10.949Z,29.50
2018-08-06T12:51:40.447Z,29.90
2018-08-06T12:54:10.446Z,30.00
2018-08-06T12:56:39.671Z,29.60
2018-08-06T12:59:08.817Z,29.50
2018-08-06T13:01:38.029Z,29.90
2018-08-06T13:04:07.214Z,30.20
2018-08-06T13:06:36.495Z,30.50
2018-08-06T13:09:08.993Z,30.60
2018-08-06T13:11:38.229Z,30.70
2018-08-06T13:14:07.855Z,31.00
2018-08-06T13:16:37.004Z,31.10
2018-08-06T13:19:06.177Z,30.50
2018-08-06T13:21:35.374Z,30.00
2018-08-06T13:24:04.563Z,29.30
2018-08-06T13:26:33.734Z,29.60
2018-08-06T13:29:28.030Z,30.00
2018-08-06T13:34:57.193Z,30.90
2018-08-06T13:37:26.380Z,31.20
2018-08-06T13:39:55.600Z,31.30
2018-08-06T13:42:24.772Z,31.40
2018-08-06T13:44:53.925Z,31.20
2018-08-06T13:47:23.125Z,31.10
2018-08-06T13:49:52.270Z,31.10
2018-08-06T13:52:21.422Z,30.40
2018-08-06T13:54:50.702Z,31.20
2018-08-06T13:57:29.713Z,30.30
2018-08-06T13:59:58.847Z,31.00
2018-08-06T14:05:28.675Z,31.30
2018-08-06T14:07:57.833Z,31.50
2018-08-06T14:10:27.069Z,31.80
2018-08-06T14:12:56.266Z,31.80
2018-08-06T14:15:25.425Z,31.90
2018-08-06T14:17:54.685Z,32.40
2018-08-06T14:20:23.829Z,32.50
2018-08-06T14:22:53.026Z,32.60
2018-08-06T14:25:29.621Z,32.80
2018-08-06T14:27:58.857Z,32.90
2018-08-06T14:30:28.050Z,32.50
2018-08-06T14:32:57.381Z,32.70
2018-08-06T14:35:26.602Z,33.10
2018-08-06T14:37:55.765Z,33.20
2018-08-06T14:40:25.010Z,33.60
2018-08-06T14:42:55.587Z,33.50
2018-08-06T14:45:24.846Z,33.40
2018-08-06T14:47:54.061Z,33.40
2018-08-06T14:50:30.062Z,33.30
2018-08-06T14:52:59.357Z,32.70
2018-08-06T14:55:28.513Z,33.40
2018-08-06T14:57:57.758Z,33.80
2018-08-06T15:00:26.967Z,33.70
2018-08-06T15:02:56.229Z,34.00
2018-08-06T15:05:25.515Z,33.60
2018-08-06T15:07:54.696Z,34.00
2018-08-06T15:10:23.968Z,34.10
2018-08-06T15:12:53.150Z,34.20
2018-08-06T15:15:22.387Z,34.50
2018-08-06T15:17:51.564Z,35.00
2018-08-06T15:20:20.879Z,35.00
2018-08-06T15:22:50.206Z,35.00
2018-08-06T15:25:22.760Z,35.20
2018-08-06T15:27:52.429Z,35.00
2018-08-06T15:30:22.004Z,35.30
2018-08-06T15:32:51.209Z,35.00
2018-08-06T15:35:20.473Z,35.50
2018-08-06T15:37:49.714Z,35.20
2018-08-06T15:40:20.260Z,35.70
2018-08-06T15:42:49.529Z,35.60
2018-08-06T15:45:18.688Z,34.90
2018-08-06T15:47:47.921Z,35.40
2018-08-06T15:50:20.557Z,35.60
2018-08-06T15:52:50.097Z,35.80
2018-08-06T15:55:19.292Z,35.30
2018-08-06T15:57:48.504Z,35.80
2018-08-06T16:00:18.894Z,36.20
2018-08-06T16:02:48.457Z,36.40
2018-08-06T16:05:18.542Z,36.60
2018-08-06T16:07:47.947Z,36.80
2018-08-06T16:10:17.709Z,35.80
2018-08-06T16:12:46.877Z,36.30
2018-08-06T16:15:16.771Z,36.30
2018-08-06T16:17:46.400Z,36.60
2018-08-06T16:20:17.827Z,37.10
2018-08-06T16:22:47.073Z,36.90
2018-08-06T16:25:16.677Z,36.90
2018-08-06T16:27:45.899Z,36.90
2018-08-06T16:30:23.403Z,36.90
2018-08-06T16:35:23.682Z,37.50
2018-08-06T16:37:55.469Z,38.30
2018-08-06T16:40:24.633Z,38.20
2018-08-06T16:42:53.897Z,38.20
2018-08-06T16:45:30.432Z,38.40
2018-08-06T16:47:59.600Z,38.50
2018-08-06T16:50:28.825Z,38.20
2018-08-06T16:52:58.012Z,38.80
2018-08-06T16:55:27.200Z,38.90
2018-08-06T16:57:56.363Z,39.00
2018-08-06T17:00:25.524Z,38.90
2018-08-06T17:05:55.192Z,39.20
2018-08-06T17:08:24.406Z,39.30
2018-08-06T17:10:53.646Z,39.10
2018-08-06T17:13:30.145Z,39.00
2018-08-06T17:15:59.325Z,39.20
2018-08-06T17:18:28.656Z,39.40
2018-08-06T17:20:57.874Z,39.30
2018-08-06T17:23:27.061Z,39.10
2018-08-06T17:25:56.289Z,39.40
2018-08-06T17:28:25.446Z,39.70
2018-08-06T17:30:54.688Z,39.60
2018-08-06T17:33:23.906Z,39.40
2018-08-06T17:35:53.081Z,39.50
2018-08-06T17:38:22.290Z,39.20
2018-08-06T17:40:51.494Z,38.80
2018-08-06T17:43:20.686Z,38.90
2018-08-06T17:45:50.305Z,38.80
2018-08-06T17:48:19.682Z,38.80
2018-08-06T17:50:48.922Z,38.40
2018-08-06T17:53:18.201Z,38.30
2018-08-06T17:58:16.526Z,38.50
2018-08-06T18:00:45.753Z,38.50
2018-08-06T18:03:14.929Z,38.20
2018-08-06T18:05:44.137Z,37.80
2018-08-06T18:08:30.265Z,37.20
2018-08-06T18:10:59.424Z,36.60
2018-08-06T18:13:28.701Z,36.30
2018-08-06T18:15:57.943Z,36.20
2018-08-06T18:18:27.260Z,36.20
2018-08-06T18:20:56.460Z,36.00
2018-08-06T18:23:32.095Z,36.00
2018-08-06T18:26:01.281Z,36.00
2018-08-06T18:28:30.438Z,36.20
2018-08-06T18:30:59.667Z,36.30
2018-08-06T18:33:28.860Z,35.70
2018-08-06T18:35:58.119Z,35.50
2018-08-06T18:38:27.291Z,35.10
2018-08-06T18:43:56.565Z,34.60
2018-08-06T18:46:25.742Z,34.90
2018-08-06T18:48:54.975Z,34.90
2018-08-06T18:51:29.786Z,34.90
2018-08-06T18:54:46.501Z,34.70
2018-08-06T18:57:15.758Z,34.30
2018-08-06T18:59:44.974Z,34.00
2018-08-06T19:02:30.603Z,33.60
2018-08-06T19:04:59.768Z,33.60
2018-08-06T19:07:29.092Z,33.60
2018-08-06T19:09:58.297Z,33.70
2018-08-06T19:12:36.609Z,33.80
2018-08-06T19:15:06.350Z,33.70
2018-08-06T19:17:39.669Z,33.70
2018-08-06T19:20:08.884Z,33.50
2018-08-06T19:22:38.117Z,33.50
2018-08-06T19:25:31.666Z,33.40
2018-08-06T19:28:00.907Z,33.20
2018-08-06T19:30:35.694Z,33.10
2018-08-06T19:33:29.706Z,33.00
2018-08-06T19:36:28.034Z,32.80
2018-08-06T19:38:57.200Z,32.70
2018-08-06T19:41:26.370Z,32.50
2018-08-06T19:43:55.536Z,32.30
2018-08-06T19:46:30.411Z,32.20
2018-08-06T19:48:59.665Z,32.10
2018-08-06T19:51:28.861Z,31.90
2018-08-06T19:53:58.095Z,31.80
2018-08-06T19:56:30.968Z,31.50
2018-08-06T19:59:00.162Z,31.50
2018-08-06T20:01:31.078Z,31.50
2018-08-06T20:04:00.321Z,31.40
2018-08-06T20:06:29.498Z,31.30
2018-08-06T20:08:58.671Z,31.20
2018-08-06T20:11:27.941Z,31.10
2018-08-06T20:13:57.173Z,31.00
2018-08-06T20:16:32.201Z,30.90
2018-08-06T20:19:01.377Z,30.90
2018-08-06T20:21:30.574Z,30.70
2018-08-06T20:24:28.667Z,30.60
2018-08-06T20:26:58.160Z,30.50
2018-08-06T20:29:27.369Z,30.40
2018-08-06T20:34:56.654Z,30.20
2018-08-06T20:39:54.881Z,30.00
2018-08-06T20:42:24.079Z,29.90
2018-08-06T20:50:37.801Z,29.60
2018-08-06T20:53:07.900Z,29.50
2018-08-06T20:55:37.139Z,29.30
2018-08-06T20:58:29.675Z,29.10
2018-08-06T21:01:28.447Z,29.10
2018-08-06T21:03:57.593Z,29.00
2018-08-06T21:06:26.761Z,29.00
2018-08-06T21:08:56.081Z,28.90
2018-08-06T21:11:25.257Z,28.80
2018-08-06T21:16:54.431Z,28.60
2018-08-06T21:19:23.585Z,28.60
2018-08-06T21:21:52.869Z,28.50
2018-08-06T21:24:30.423Z,28.40
2018-08-06T21:26:59.832Z,28.30
2018-08-06T21:29:29.109Z,28.20
2018-08-06T21:34:58.453Z,28.10
2018-08-06T21:37:27.723Z,28.00
2018-08-06T21:39:56.996Z,27.90
2018-08-06T21:42:26.151Z,27.90
2018-08-06T21:44:55.388Z,27.80
2018-08-06T21:47:24.617Z,27.70
2018-08-06T21:49:53.793Z,27.70
2018-08-06T21:52:23.040Z,27.60
2018-08-06T21:54:52.237Z,27.50
2018-08-06T21:57:31.243Z,27.40
2018-08-06T22:00:29.037Z,27.40
2018-08-06T22:02:58.242Z,27.30
2018-08-06T22:05:27.438Z,27.20
2018-08-06T22:07:56.618Z,27.10
2018-08-06T22:10:25.842Z,27.10
2018-08-06T22:12:55.162Z,27.00
2018-08-06T22:15:30.029Z,26.90
2018-08-06T22:17:59.182Z,26.90
2018-08-06T22:20:28.358Z,26.80
2018-08-06T22:22:57.585Z,26.70
2018-08-06T22:25:26.743Z,26.70
2018-08-06T22:27:55.901Z,26.60
2018-08-06T22:30:25.238Z,26.50
2018-08-06T22:32:54.440Z,26.50
2018-08-06T22:35:23.595Z,26.40
2018-08-06T22:37:52.899Z,26.40
2018-08-06T22:40:22.079Z,26.30
2018-08-06T22:42:51.214Z,26.20
2018-08-06T22:45:20.410Z,26.20
2018-08-06T22:47:49.601Z,26.20
2018-08-06T22:50:30.929Z,26.10
2018-08-06T22:53:00.080Z,26.00
2018-08-06T22:55:29.834Z,26.00
2018-08-06T22:57:58.986Z,25.90
2018-08-06T23:00:31.549Z,25.90
2018-08-06T23:07:01.132Z,25.70
2018-08-06T23:09:30.260Z,25.70
2018-08-06T23:12:28.966Z,25.60
2018-08-06T23:14:58.189Z,25.50
2018-08-06T23:17:30.485Z,25.50
2018-08-06T23:19:59.658Z,25.40
2018-08-06T23:22:28.788Z,25.40
2018-08-06T23:24:58.026Z,25.40
2018-08-06T23:27:27.223Z,25.30
2018-08-06T23:29:57.450Z,25.20
2018-08-06T23:32:30.568Z,25.20
2018-08-06T23:34:59.757Z,25.10
2018-08-06T23:37:28.946Z,25.10
2018-08-06T23:39:58.182Z,25.10
2018-08-06T23:42:27.325Z,25.00
2018-08-06T23:50:56.969Z,24.90
2018-08-06T23:53:26.128Z,24.80
2018-08-06T23:55:55.315Z,24.70
2018-08-06T23:58:24.638Z,24.70
